Storm Events Database

Event Details

Event Hail
Magnitude 1.75 in.
State MINNESOTA
County/Area CARVER
WFO MPX
Report Source Emergency Manager
NCDC Data Source CSV
Begin Date 2007-06-20 17:33:00.0 CST-6
Begin Location 0N WATERTOWN
Begin Lat/Lon 44.97/-93.85
End Date 2007-06-20 17:33:00.0 CST-6
Deaths Direct/Indirect 0/0 (fatality details below, when available...)
Injuries Direct/Indirect 0/0
Property Damage 0.00K
Crop Damage 0.00K
Episode Narrative A strong cold front was the catalyst for a large severe weather event across much of the region.
Event Narrative The Carver County News described one report of baseball size hail (2.75 inch), but this was unconfirmed. Hail damaged houses, vehicles, and area crops.


     ‚Äč



All events for this episode:

Location County/Zone St. Date Time T.Z. Type Mag Dth Inj PrD CrD
Totals: 0 20 25.000M 0.00K
CAMBRIDGE ISANTI CO. MN 06/20/2007 15:23 CST-6 Hail 0.75 in. 0 0 0.00K 0.00K
SAUK CENTRE STEARNS CO. MN 06/20/2007 15:28 CST-6 Hail 1.00 in. 0 0 0.00K 0.00K
ISANTI ISANTI CO. MN 06/20/2007 15:40 CST-6 Hail 0.88 in. 0 0 0.00K 0.00K
ISANTI ISANTI CO. MN 06/20/2007 15:45 CST-6 Hail 1.75 in. 0 0 0.00K 0.00K
ALBANY STEARNS CO. MN 06/20/2007 15:54 CST-6 Hail 0.75 in. 0 0 0.00K 0.00K
RICHMOND STEARNS CO. MN 06/20/2007 16:02 CST-6 Hail 0.75 in. 0 0 0.00K 0.00K
CHISAGO CITY CHISAGO CO. MN 06/20/2007 16:05 CST-6 Hail 1.40 in. 0 0 0.00K 0.00K
RICHMOND STEARNS CO. MN 06/20/2007 16:05 CST-6 Hail 0.75 in. 0 0 0.00K 0.00K
WYOMING CHISAGO CO. MN 06/20/2007 16:10 CST-6 Hail 0.75 in. 0 0 0.00K 0.00K
SARTELL STEARNS CO. MN 06/20/2007 16:14 CST-6 Hail 0.75 in. 0 0 0.00K 0.00K
CHISAGO CITY CHISAGO CO. MN 06/20/2007 16:15 CST-6 Hail 1.25 in. 0 0 0.00K 0.00K
SARTELL STEARNS CO. MN 06/20/2007 16:21 CST-6 Hail 1.00 in. 0 0 0.00K 0.00K
ST NICHOLAS STEARNS CO. MN 06/20/2007 16:24 CST-6 Hail 1.00 in. 0 0 0.00K 0.00K
SARTELL STEARNS CO. MN 06/20/2007 16:25 CST-6 Hail 3.50 in. 0 20 7.000M 0.00K
SAUK RAPIDS BENTON CO. MN 06/20/2007 16:29 CST-6 Hail 2.50 in. 0 0 3.000M 0.00K
CABLE SHERBURNE CO. MN 06/20/2007 16:35 CST-6 Hail 1.00 in. 0 0 0.00K 0.00K
KINGSTON MEEKER CO. MN 06/20/2007 16:35 CST-6 Hail 0.75 in. 0 0 0.00K 0.00K
FRENCH LAKE WRIGHT CO. MN 06/20/2007 16:40 CST-6 Hail 1.00 in. 0 0 0.00K 0.00K
PRINCETON MILLE LACS CO. MN 06/20/2007 16:48 CST-6 Hail 2.00 in. 0 0 0.00K 0.00K
FOLEY BENTON CO. MN 06/20/2007 16:50 CST-6 Hail 1.75 in. 0 0 0.00K 0.00K
FOLEY BENTON CO. MN 06/20/2007 16:55 CST-6 Hail 1.75 in. 0 0 0.00K 0.00K
FRENCH LAKE WRIGHT CO. MN 06/20/2007 16:55 CST-6 Hail 1.75 in. 0 0 1.000M 0.00K
HOWARD LAKE WRIGHT CO. MN 06/20/2007 17:03 CST-6 Hail 0.75 in. 0 0 0.00K 0.00K
PINE BROOK ISANTI CO. MN 06/20/2007 17:06 CST-6 Hail 1.00 in. 0 0 0.00K 0.00K
CAMBRIDGE ISANTI CO. MN 06/20/2007 17:08 CST-6 Hail 1.75 in. 0 0 0.00K 0.00K
CAMBRIDGE ISANTI CO. MN 06/20/2007 17:09 CST-6 Hail 1.00 in. 0 0 0.00K 0.00K
CAMBRIDGE ISANTI CO. MN 06/20/2007 17:11 CST-6 Hail 1.75 in. 0 0 0.00K 0.00K
HOWARD LAKE WRIGHT CO. MN 06/20/2007 17:14 CST-6 Hail 1.00 in. 0 0 0.00K 0.00K
CAMBRIDGE ISANTI CO. MN 06/20/2007 17:15 CST-6 Hail 1.75 in. 0 0 0.00K 0.00K
CAMBRIDGE ISANTI CO. MN 06/20/2007 17:15 CST-6 Hail 1.75 in. 0 0 0.00K 0.00K
PRINCETON MILLE LACS CO. MN 06/20/2007 17:15 CST-6 Hail 1.25 in. 0 0 0.00K 0.00K
HOWARD LAKE WRIGHT CO. MN 06/20/2007 17:17 CST-6 Funnel Cloud 0 0 0.00K 0.00K
HOWARD LAKE WRIGHT CO. MN 06/20/2007 17:18 CST-6 Hail 0.75 in. 0 0 0.00K 0.00K
CAMBRIDGE ISANTI CO. MN 06/20/2007 17:22 CST-6 Hail 1.75 in. 0 0 0.00K 0.00K
GRANDY ISANTI CO. MN 06/20/2007 17:22 CST-6 Hail 1.50 in. 0 0 0.00K 0.00K
MONTROSE WRIGHT CO. MN 06/20/2007 17:22 CST-6 Hail 1.75 in. 0 0 0.00K 0.00K
WATERTOWN CARVER CO. MN 06/20/2007 17:22 CST-6 Hail 1.75 in. 0 0 0.00K 0.00K
CAMBRIDGE ISANTI CO. MN 06/20/2007 17:23 CST-6 Thunderstorm Wind 52 kts. EG 0 0 0.00K 0.00K
MONTROSE WRIGHT CO. MN 06/20/2007 17:25 CST-6 Hail 1.75 in. 0 0 0.00K 0.00K
DELANO WRIGHT CO. MN 06/20/2007 17:30 CST-6 Hail 2.75 in. 0 0 0.00K 0.00K
HARRIS CHISAGO CO. MN 06/20/2007 17:30 CST-6 Hail 4.25 in. 0 0 2.000M 0.00K
WATERTOWN CARVER CO. MN 06/20/2007 17:33 CST-6 Hail 1.75 in. 0 0 0.00K 0.00K
NORTH BRANCH CHISAGO CO. MN 06/20/2007 17:34 CST-6 Hail 0.88 in. 0 0 0.00K 0.00K
SPRING LAKE ISANTI CO. MN 06/20/2007 17:34 CST-6 Hail 2.00 in. 0 0 0.00K 0.00K
WACONIA CARVER CO. MN 06/20/2007 17:40 CST-6 Hail 1.00 in. 0 0 0.00K 0.00K
ST BONIFACIUS HENNEPIN CO. MN 06/20/2007 17:42 CST-6 Hail 1.00 in. 0 0 0.00K 0.00K
WAVERLY WRIGHT CO. MN 06/20/2007 17:47 CST-6 Hail 1.00 in. 0 0 0.00K 0.00K
ALMELUND CHISAGO CO. MN 06/20/2007 17:50 CST-6 Hail 1.75 in. 0 0 0.00K 0.00K
WINSTED MCLEOD CO. MN 06/20/2007 17:55 CST-6 Hail 1.75 in. 0 0 0.00K 0.00K
CHASKA CARVER CO. MN 06/20/2007 18:05 CST-6 Hail 1.75 in. 0 0 0.00K 0.00K
SHAKOPEE SCOTT CO. MN 06/20/2007 18:10 CST-6 Hail 0.88 in. 0 0 0.00K 0.00K
PRIOR LAKE SCOTT CO. MN 06/20/2007 18:20 CST-6 Hail 1.00 in. 0 0 0.00K 0.00K
JORDAN SCOTT CO. MN 06/20/2007 18:22 CST-6 Hail 1.75 in. 0 0 0.00K 0.00K
COLOGNE CARVER CO. MN 06/20/2007 18:29 CST-6 Hail 0.75 in. 0 0 0.00K 0.00K
EXCELSIOR HENNEPIN CO. MN 06/20/2007 18:30 CST-6 Hail 0.75 in. 0 0 0.00K 0.00K
CHANHASSEN CARVER CO. MN 06/20/2007 18:34 CST-6 Hail 1.75 in. 0 0 0.00K 0.00K
COLOGNE CARVER CO. MN 06/20/2007 18:35 CST-6 Hail 1.50 in. 0 0 0.00K 0.00K
EDEN PRAIRIE HENNEPIN CO. MN 06/20/2007 18:42 CST-6 Hail 0.75 in. 0 0 0.00K 0.00K
CARVER CARVER CO. MN 06/20/2007 18:50 CST-6 Hail 1.00 in. 0 0 0.00K 0.00K
ELKO SCOTT CO. MN 06/20/2007 18:54 CST-6 Hail 1.75 in. 0 0 0.00K 0.00K
JORDAN SCOTT CO. MN 06/20/2007 18:55 CST-6 Hail 0.88 in. 0 0 0.00K 0.00K
NEW PRAGUE SCOTT CO. MN 06/20/2007 18:58 CST-6 Hail 1.75 in. 0 0 0.00K 0.00K
ELKO SCOTT CO. MN 06/20/2007 19:04 CST-6 Hail 1.50 in. 0 0 0.00K 0.00K
ELKO SCOTT CO. MN 06/20/2007 19:05 CST-6 Hail 0.75 in. 0 0 0.00K 0.00K
NEW PRAGUE SCOTT CO. MN 06/20/2007 19:07 CST-6 Hail 1.00 in. 0 0 0.00K 0.00K
NEW PRAGUE SCOTT CO. MN 06/20/2007 19:09 CST-6 Hail 2.75 in. 0 0 0.00K 0.00K
NEW PRAGUE SCOTT CO. MN 06/20/2007 19:11 CST-6 Hail 1.75 in. 0 0 0.00K 0.00K
NEW PRAGUE SCOTT CO. MN 06/20/2007 19:18 CST-6 Thunderstorm Wind 54 kts. EG 0 0 0.00K 0.00K
LONSDALE RICE CO. MN 06/20/2007 19:19 CST-6 Hail 0.75 in. 0 0 0.00K 0.00K
ARLINGTON SIBLEY CO. MN 06/20/2007 19:21 CST-6 Hail 1.00 in. 0 0 0.00K 0.00K
LONSDALE RICE CO. MN 06/20/2007 19:29 CST-6 Hail 1.00 in. 0 0 0.00K 0.00K
ARLINGTON SIBLEY CO. MN 06/20/2007 19:30 CST-6 Hail 0.75 in. 0 0 0.00K 0.00K
BELLE PLAINE SCOTT CO. MN 06/20/2007 19:39 CST-6 Hail 1.25 in. 0 0 0.00K 0.00K
SHIELDSVILLE RICE CO. MN 06/20/2007 19:41 CST-6 Hail 0.88 in. 0 0 0.00K 0.00K
SHIELDSVILLE RICE CO. MN 06/20/2007 19:49 CST-6 Hail 1.75 in. 0 0 0.00K 0.00K
NEW PRAGUE SCOTT CO. MN 06/20/2007 19:52 CST-6 Hail 1.75 in. 0 0 0.00K 0.00K
NEW PRAGUE LE SUEUR CO. MN 06/20/2007 19:52 CST-6 Hail 1.75 in. 0 0 0.00K 0.00K
FARIBAULT RICE CO. MN 06/20/2007 19:53 CST-6 Hail 0.88 in. 0 0 0.00K 0.00K
SHIELDSVILLE RICE CO. MN 06/20/2007 19:55 CST-6 Hail 1.75 in. 0 0 0.00K 0.00K
NEW PRAGUE SCOTT CO. MN 06/20/2007 20:03 CST-6 Hail 1.00 in. 0 0 0.00K 0.00K
LE SUEUR LE SUEUR CO. MN 06/20/2007 20:18 CST-6 Hail 1.75 in. 0 0 0.00K 0.00K
OWATONNA STEELE CO. MN 06/20/2007 20:25 CST-6 Hail 1.00 in. 0 0 0.00K 0.00K
MORRISTOWN RICE CO. MN 06/20/2007 20:48 CST-6 Hail 0.88 in. 0 0 0.00K 0.00K
WATERVILLE LE SUEUR CO. MN 06/20/2007 20:49 CST-6 Hail 1.00 in. 0 0 0.00K 0.00K
SOUTH ST PAUL DAKOTA CO. MN 06/20/2007 20:58 CST-6 Hail 0.88 in. 0 0 0.00K 0.00K
INVER GROVE HEIGHTS DAKOTA CO. MN 06/20/2007 21:04 CST-6 Hail 0.75 in. 0 0 0.00K 0.00K
ELYSIAN LE SUEUR CO. MN 06/20/2007 21:09 CST-6 Hail 0.88 in. 0 0 0.00K 0.00K
COTTAGE GROVE WASHINGTON CO. MN 06/20/2007 21:24 CST-6 Hail 0.75 in. 0 0 0.00K 0.00K
HASTINGS DAKOTA CO. MN 06/20/2007 21:26 CST-6 Hail 3.00 in. 0 0 12.000M 0.00K
JANESVILLE WASECA CO. MN 06/20/2007 21:53 CST-6 Hail 1.00 in. 0 0 0.00K 0.00K
HARTLAND FREEBORN CO. MN 06/20/2007 22:39 CST-6 Funnel Cloud 0 0 0.00K 0.00K
CLARKS GROVE FREEBORN CO. MN 06/20/2007 22:55 CST-6 Hail 0.75 in. 0 0 0.00K 0.00K
RED WING GOODHUE CO. MN 06/21/2007 00:42 CST-6 Hail 1.00 in. 0 0 0.00K 0.00K
RED WING GOODHUE CO. MN 06/21/2007 01:00 CST-6 Hail 1.75 in. 0 0 0.00K 0.00K
ARLINGTON SIBLEY CO. MN 06/21/2007 01:25 CST-6 Hail 1.00 in. 0 0 0.00K 0.00K
OWATONNA STEELE CO. MN 06/21/2007 05:00 CST-6 Hail 1.00 in. 0 0 0.00K 0.00K
LAKE CRYSTAL BLUE EARTH CO. MN 06/21/2007 14:34 CST-6 Hail 1.00 in. 0 0 0.00K 0.00K
BRICELYN FARIBAULT CO. MN 06/21/2007 15:05 CST-6 Hail 0.88 in. 0 0 0.00K 0.00K
VERNON CENTER BLUE EARTH CO. MN 06/21/2007 15:25 CST-6 Hail 1.00 in. 0 0 0.00K 0.00K
GOOD THUNDER BLUE EARTH CO. MN 06/21/2007 15:28 CST-6 Hail 0.88 in. 0 0 0.00K 0.00K
AMBOY BLUE EARTH CO. MN 06/21/2007 15:35 CST-6 Hail 1.75 in. 0 0 0.00K 0.00K
WINNEBAGO FARIBAULT CO. MN 06/21/2007 15:50 CST-6 Hail 1.75 in. 0 0 0.00K 0.00K
GLENVILLE FREEBORN CO. MN 06/21/2007 15:52 CST-6 Hail 0.75 in. 0 0 0.00K 0.00K
BLUE EARTH FARIBAULT CO. MN 06/21/2007 16:06 CST-6 Hail 1.50 in. 0 0 0.00K 0.00K
BELLE PLAINE SCOTT CO. MN 06/21/2007 16:15 CST-6 Hail 0.75 in. 0 0 0.00K 0.00K
HUTCHINSON MCLEOD CO. MN 06/21/2007 16:27 CST-6 Hail 0.75 in. 0 0 0.00K 0.00K
BUFFALO LAKE RENVILLE CO. MN 06/21/2007 17:00 CST-6 Hail 0.88 in. 0 0 0.00K 0.00K
NEW ULM BROWN CO. MN 06/21/2007 17:58 CST-6 Hail 0.75 in. 0 0 0.00K 0.00K
NEW ULM BROWN CO. MN 06/21/2007 18:02 CST-6 Hail 1.75 in. 0 0 0.00K 0.00K
NEW ULM BROWN CO. MN 06/21/2007 18:03 CST-6 Hail 1.00 in. 0 0 0.00K 0.00K
LAKE CRYSTAL BLUE EARTH CO. MN 06/21/2007 18:32 CST-6 Hail 0.88 in. 0 0 0.00K 0.00K
LAKE CRYSTAL BLUE EARTH CO. MN 06/21/2007 18:37 CST-6 Hail 1.00 in. 0 0 0.00K 0.00K
LAKE CRYSTAL BLUE EARTH CO. MN 06/21/2007 18:38 CST-6 Hail 1.00 in. 0 0 0.00K 0.00K
LAKE CRYSTAL BLUE EARTH CO. MN 06/21/2007 18:39 CST-6 Hail 1.00 in. 0 0 0.00K 0.00K
Totals: 0 20 25.000M 0.00K